Time;durP1;ratioP1;P1;durP2;ratioP2;P2;SDS_P1;SDS_P2;PMS_P1;PMS_P2;Temp;Humidity;BMP_temperature;BMP_pressure;BME280_temperature;BME280_humidity;BME280_pressure;Samples;Min_cycle;Max_cycle;Signal;HPM_P1;HPM_P2
2023/12/15 00:00:26;;;;;;;;;17.00;16.75;;;;;7.29;95.13;102646.63;5048448;28;11027;-70
2023/12/15 00:02:52;;;;;;;;;21.00;17.00;;;;;7.29;95.80;102648.44;5062853;28;11140;-69
2023/12/15 00:05:19;;;;;;;;;21.00;19.50;;;;;7.29;95.87;102654.66;5050889;28;11273;-70
2023/12/15 00:07:45;;;;;;;;;18.00;16.25;;;;;7.32;96.17;102653.53;5067260;28;11256;-70
2023/12/15 00:10:12;;;;;;;;;13.00;13.00;;;;;7.34;96.08;102652.44;5067689;28;11140;-70
2023/12/15 00:12:39;;;;;;;;;16.25;15.25;;;;;7.38;95.54;102659.25;5067691;28;11127;-68
2023/12/15 00:15:06;;;;;;;;;17.00;13.75;;;;;7.39;95.65;102655.56;5049302;28;11235;-70
2023/12/15 00:17:32;;;;;;;;;17.75;16.75;;;;;7.41;95.84;102656.31;5067001;28;11207;-70
2023/12/15 00:19:59;;;;;;;;;19.00;14.25;;;;;7.44;96.06;102652.50;5058578;28;11208;-69
2023/12/15 00:22:26;;;;;;;;;16.50;16.25;;;;;7.46;95.70;102657.75;5064355;28;11197;-69
2023/12/15 00:24:53;;;;;;;;;21.00;17.00;;;;;7.46;95.36;102663.13;5060341;28;11119;-70
2023/12/15 00:27:19;;;;;;;;;15.50;15.50;;;;;7.41;95.86;102659.00;5068276;28;11344;-69
2023/12/15 00:29:45;;;;;;;;;17.00;14.00;;;;;7.44;96.09;102666.75;5068385;28;11016;-69
2023/12/15 00:32:12;;;;;;;;;22.00;20.75;;;;;7.44;96.13;102672.09;5068624;28;11027;-70
2023/12/15 00:34:38;;;;;;;;;23.75;20.50;;;;;7.43;95.96;102667.72;5065074;28;11248;-69
2023/12/15 00:37:05;;;;;;;;;24.50;21.00;;;;;7.46;96.03;102657.75;5060880;28;11257;-69
2023/12/15 00:39:35;;;;;;;;;21.25;19.00;;;;;7.44;95.91;102674.78;5066749;28;11391;-68
2023/12/15 00:42:03;;;;;;;;;22.25;20.50;;;;;7.41;96.42;102659.00;5068464;28;10936;-69
2023/12/15 00:44:29;;;;;;;;;20.00;16.75;;;;;7.43;96.15;102664.22;5062843;28;11344;-69
2023/12/15 00:46:56;;;;;;;;;21.50;19.00;;;;;7.43;96.29;102665.06;5066688;28;11767;-69
2023/12/15 00:49:24;;;;;;;;;26.00;21.00;;;;;7.46;96.79;102669.31;5067837;28;11589;-69
2023/12/15 00:51:50;;;;;;;;;25.50;23.50;;;;;7.46;96.48;102677.34;5063368;28;11138;-69
2023/12/15 00:54:18;;;;;;;;;21.75;19.00;;;;;7.48;96.81;102680.75;5048871;28;11198;-67
2023/12/15 00:56:44;;;;;;;;;24.50;21.00;;;;;7.43;96.54;102678.44;5056069;28;11280;-69
2023/12/15 00:59:11;;;;;;;;;28.00;24.75;;;;;7.44;96.92;102690.88;5064014;28;11255;-69
2023/12/15 01:01:37;;;;;;;;;29.75;25.00;;;;;7.46;96.55;102692.59;5067167;28;11503;-70
2023/12/15 01:04:04;;;;;;;;;30.75;25.50;;;;;7.46;96.68;102688.06;5057439;28;11198;-69
2023/12/15 01:06:30;;;;;;;;;25.25;21.25;;;;;7.47;96.95;102689.75;5060371;28;11509;-68
2023/12/15 01:08:57;;;;;;;;;22.50;22.25;;;;;7.47;96.83;102683.56;5063888;28;11277;-69
2023/12/15 01:11:23;;;;;;;;;18.00;16.75;;;;;7.47;96.36;102678.19;5066905;28;12013;-69
2023/12/15 01:13:50;;;;;;;;;25.00;23.50;;;;;7.46;97.17;102698.78;5064776;28;11087;-69
2023/12/15 01:16:16;;;;;;;;;25.25;20.50;;;;;7.49;96.62;102703.88;5057606;28;11248;-69
2023/12/15 01:18:43;;;;;;;;;25.75;21.25;;;;;7.51;96.65;102701.09;5067764;28;11128;-69
2023/12/15 01:21:09;;;;;;;;;22.25;21.25;;;;;7.52;97.06;102708.13;5068247;28;11126;-69
2023/12/15 01:23:36;;;;;;;;;22.50;19.00;;;;;7.52;96.67;102702.78;5068085;28;11128;-69
2023/12/15 01:26:04;;;;;;;;;22.50;19.25;;;;;7.53;96.35;102715.19;5058181;28;11299;-69
2023/12/15 01:28:30;;;;;;;;;19.25;14.25;;;;;7.53;96.82;102717.88;5066145;28;11140;-69
2023/12/15 01:31:01;;;;;;;;;19.75;17.75;;;;;7.53;96.29;102723.22;5068032;28;11048;-67
2023/12/15 01:33:28;;;;;;;;;23.00;18.25;;;;;7.54;97.08;102723.13;5068734;28;10897;-71
2023/12/15 01:35:55;;;;;;;;;18.75;17.00;;;;;7.53;96.28;102729.44;5069174;28;11074;-68
2023/12/15 01:38:22;;;;;;;;;24.00;16.50;;;;;7.54;96.26;102733.00;5070624;28;11110;-71
2023/12/15 01:40:49;;;;;;;;;29.50;22.25;;;;;7.53;96.92;102725.91;5070905;28;11090;-70
2023/12/15 01:43:16;;;;;;;;;25.75;24.25;;;;;7.52;96.29;102737.63;5067263;28;11744;-67
2023/12/15 01:45:42;;;;;;;;;21.75;20.00;;;;;7.53;96.81;102725.91;5067944;28;11122;-71
2023/12/15 01:48:10;;;;;;;;;23.00;20.75;;;;;7.53;96.20;102739.31;5069431;28;11152;-69
2023/12/15 01:50:38;;;;;;;;;27.75;24.00;;;;;7.48;96.75;102749.56;5070359;28;11185;-69
2023/12/15 01:53:05;;;;;;;;;26.75;22.75;;;;;7.48;96.88;102749.56;5070371;28;11277;-70
2023/12/15 01:55:31;;;;;;;;;26.50;22.25;;;;;7.48;97.32;102755.78;5066772;28;11507;-68
2023/12/15 01:57:58;;;;;;;;;22.75;18.75;;;;;7.50;97.17;102763.69;5070498;28;10964;-69
2023/12/15 02:00:24;;;;;;;;;25.50;21.75;;;;;7.51;97.14;102765.41;5069027;28;11018;-70
2023/12/15 02:02:51;;;;;;;;;21.25;18.00;;;;;7.53;97.86;102764.28;5070009;28;11102;-69
2023/12/15 02:05:17;;;;;;;;;23.25;21.75;;;;;7.54;97.57;102767.81;5066572;28;10983;-69
2023/12/15 02:07:44;;;;;;;;;17.75;15.25;;;;;7.55;97.18;102775.72;5070982;28;11827;-68
2023/12/15 02:10:10;;;;;;;;;24.25;20.75;;;;;7.55;97.29;102783.78;5069790;28;11080;-69
2023/12/15 02:12:37;;;;;;;;;26.50;22.00;;;;;7.56;96.99;102781.94;5071286;28;12026;-69
2023/12/15 02:15:04;;;;;;;;;25.75;23.75;;;;;7.58;97.90;102783.53;5067395;28;11181;-69
2023/12/15 02:17:30;;;;;;;;;19.00;18.00;;;;;7.58;97.27;102794.25;5068078;28;11179;-70
2023/12/15 02:19:57;;;;;;;;;26.50;19.25;;;;;7.58;97.08;102796.06;5065083;28;11023;-69
2023/12/15 02:22:26;;;;;;;;;24.00;23.25;;;;;7.58;97.28;102801.44;5066696;28;11014;-69
2023/12/15 02:24:53;;;;;;;;;20.50;16.00;;;;;7.59;97.45;102798.63;5069100;28;11186;-68
2023/12/15 02:27:19;;;;;;;;;18.00;15.50;;;;;7.60;97.75;102794.94;5067424;28;10950;-69
2023/12/15 02:29:46;;;;;;;;;17.00;14.75;;;;;7.61;97.39;102803.84;5063980;28;10854;-69
2023/12/15 02:32:13;;;;;;;;;17.00;14.75;;;;;7.60;97.32;102800.31;5066273;28;11263;-68
2023/12/15 02:34:39;;;;;;;;;19.50;16.50;;;;;7.60;97.40;102802.16;5057772;28;10910;-69
2023/12/15 02:37:06;;;;;;;;;18.00;16.50;;;;;7.61;97.19;102804.69;5062227;28;10913;-69
2023/12/15 02:39:33;;;;;;;;;21.50;15.00;;;;;7.61;97.01;102799.31;5068542;28;10893;-68
2023/12/15 02:41:59;;;;;;;;;23.00;18.25;;;;;7.63;97.00;102810.78;5070054;28;11045;-69
2023/12/15 02:44:26;;;;;;;;;16.00;15.00;;;;;7.64;97.58;102819.69;5064135;28;11170;-69
2023/12/15 02:46:52;;;;;;;;;20.25;18.00;;;;;7.64;97.06;102820.53;5065562;28;10935;-70
2023/12/15 02:49:19;;;;;;;;;19.75;17.75;;;;;7.64;97.38;102823.19;5070403;28;10989;-68
2023/12/15 02:51:45;;;;;;;;;18.50;17.75;;;;;7.63;97.07;102818.81;5070614;28;11077;-70
2023/12/15 02:54:12;;;;;;;;;23.00;21.50;;;;;7.63;97.23;102818.81;5067451;28;10845;-69
2023/12/15 02:56:38;;;;;;;;;20.25;16.75;;;;;7.64;97.05;102825.03;5062477;28;11271;-70
2023/12/15 02:59:05;;;;;;;;;16.00;14.25;;;;;7.66;97.17;102826.63;5070139;28;11170;-68
2023/12/15 03:01:32;;;;;;;;;25.50;23.25;;;;;7.67;96.78;102830.16;5065514;28;11044;-68
2023/12/15 03:03:58;;;;;;;;;26.50;19.25;;;;;7.66;97.38;102833.81;5063156;28;11326;-69
2023/12/15 03:06:25;;;;;;;;;18.50;17.00;;;;;7.66;97.45;102829.31;5064206;28;11308;-69
2023/12/15 03:08:51;;;;;;;;;18.50;16.75;;;;;7.67;97.46;102830.16;5070181;28;11090;-69
2023/12/15 03:11:17;;;;;;;;;14.00;13.75;;;;;7.68;97.09;102834.53;5068901;28;11733;-69
2023/12/15 03:13:44;;;;;;;;;19.00;15.50;;;;;7.67;96.63;102835.50;5065583;28;10988;-69
2023/12/15 03:16:11;;;;;;;;;21.75;17.50;;;;;7.65;96.93;102832.94;5061429;28;11139;-69
2023/12/15 03:18:38;;;;;;;;;22.00;18.25;;;;;7.65;96.82;102843.66;5066502;28;11030;-69
2023/12/15 03:21:05;;;;;;;;;18.00;15.75;;;;;7.67;97.02;102851.59;5071429;28;11026;-69
2023/12/15 03:23:31;;;;;;;;;18.25;16.50;;;;;7.66;96.76;102868.66;5060865;28;10986;-68
2023/12/15 03:25:58;;;;;;;;;19.50;18.00;;;;;7.67;97.54;102873.88;5068597;28;10966;-68
2023/12/15 03:28:25;;;;;;;;;17.25;16.50;;;;;7.67;97.05;102871.22;5052228;28;10906;-69
2023/12/15 03:30:51;;;;;;;;;18.25;17.50;;;;;7.68;97.74;102864.84;5063158;28;10943;-68
2023/12/15 03:33:18;;;;;;;;;17.50;13.75;;;;;7.71;97.48;102860.25;5062823;28;11006;-69
2023/12/15 03:35:44;;;;;;;;;18.25;16.00;;;;;7.69;97.50;102869.25;5064864;28;11020;-69
2023/12/15 03:38:12;;;;;;;;;14.75;14.75;;;;;7.71;97.40;102871.81;5049801;28;11098;-68
2023/12/15 03:40:39;;;;;;;;;15.75;13.75;;;;;7.74;97.28;102882.28;5049966;28;11046;-69
2023/12/15 03:43:05;;;;;;;;;14.75;13.50;;;;;7.75;96.90;102875.94;5068119;28;10944;-68
2023/12/15 03:45:32;;;;;;;;;14.00;12.00;;;;;7.76;97.11;102874.13;5068383;28;11629;-69
2023/12/15 03:47:58;;;;;;;;;14.50;12.00;;;;;7.75;97.32;102878.63;5069424;28;10928;-68
2023/12/15 03:50:25;;;;;;;;;16.00;15.00;;;;;7.75;97.72;102870.59;5062842;28;10951;-68
2023/12/15 03:52:51;;;;;;;;;13.75;12.50;;;;;7.78;97.71;102877.50;5067539;28;10852;-68
2023/12/15 03:55:18;;;;;;;;;17.00;12.00;;;;;7.78;97.33;102885.53;5064040;28;10841;-69
2023/12/15 03:57:45;;;;;;;;;17.25;15.00;;;;;7.77;97.10;102883.84;5059302;28;10883;-67
2023/12/15 04:00:12;;;;;;;;;17.50;14.25;;;;;7.80;97.22;102891.66;5069602;28;10798;-69
2023/12/15 04:02:38;;;;;;;;;13.00;10.00;;;;;7.82;97.30;102890.56;5069569;28;10992;-68
2023/12/15 04:05:05;;;;;;;;;15.50;11.75;;;;;7.82;97.32;102893.25;5067061;28;10911;-68
2023/12/15 04:07:32;;;;;;;;;15.00;15.00;;;;;7.83;97.09;102902.13;5069335;28;10943;-69
2023/12/15 04:09:59;;;;;;;;;10.50;9.00;;;;;7.83;97.31;102900.28;5053270;28;10833;-68
2023/12/15 04:12:25;;;;;;;;;13.50;9.00;;;;;7.84;96.81;102902.00;5047867;28;10670;-67
2023/12/15 04:14:52;;;;;;;;;16.00;10.25;;;;;7.86;96.94;102901.88;5063928;28;10616;-68
2023/12/15 04:17:19;;;;;;;;;10.00;10.00;;;;;7.87;96.99;102911.63;5059531;28;10729;-67
2023/12/15 04:19:45;;;;;;;;;11.75;9.50;;;;;7.86;96.64;102907.25;5067537;28;10756;-69
2023/12/15 04:22:12;;;;;;;;;12.00;11.00;;;;;7.86;97.15;102912.63;5068003;28;10786;-68
2023/12/15 04:24:39;;;;;;;;;12.75;11.50;;;;;7.85;97.13;102902.84;5063533;28;10892;-65
2023/12/15 04:27:06;;;;;;;;;11.75;8.00;;;;;7.87;97.17;102911.63;5050954;28;10779;-68
2023/12/15 04:29:32;;;;;;;;;12.75;12.75;;;;;7.87;96.73;102915.16;5067421;28;10711;-69
2023/12/15 04:31:59;;;;;;;;;12.50;10.25;;;;;7.86;97.16;102918.81;5069308;28;10868;-68
2023/12/15 04:34:25;;;;;;;;;13.75;10.25;;;;;7.88;96.94;102913.31;5067195;28;10999;-69
2023/12/15 04:36:52;;;;;;;;;11.25;10.50;;;;;7.86;97.08;102920.66;5056951;28;10874;-68
2023/12/15 04:39:18;;;;;;;;;9.25;9.00;;;;;7.88;97.25;102919.53;5059738;28;10637;-69
2023/12/15 04:41:45;;;;;;;;;11.00;10.50;;;;;7.89;97.08;102923.91;5064458;28;10799;-68
2023/12/15 04:44:11;;;;;;;;;5.75;5.75;;;;;7.90;97.21;102928.31;5066286;28;10792;-68
2023/12/15 04:46:39;;;;;;;;;10.50;10.00;;;;;7.90;97.24;102925.63;5065120;28;10724;-69
2023/12/15 04:49:05;;;;;;;;;11.00;10.00;;;;;7.91;96.76;102935.38;5067360;28;10686;-69
2023/12/15 04:51:32;;;;;;;;;8.50;8.50;;;;;7.93;96.73;102956.69;5069018;28;10671;-69
2023/12/15 04:53:58;;;;;;;;;7.00;6.50;;;;;7.94;96.96;102963.78;5063402;28;10668;-68
2023/12/15 04:56:25;;;;;;;;;10.00;7.75;;;;;7.90;96.52;102957.81;5058206;28;10595;-69
2023/12/15 04:58:52;;;;;;;;;9.50;9.00;;;;;7.90;96.91;102968.53;5063773;28;10752;-68
2023/12/15 05:01:18;;;;;;;;;10.00;9.75;;;;;7.92;97.31;102969.25;5068601;28;10985;-68
2023/12/15 05:03:45;;;;;;;;;8.50;8.50;;;;;7.93;96.97;102968.28;5068557;28;10747;-68
2023/12/15 05:06:31;;;;;;;;;8.50;8.50;;;;;7.93;97.06;102957.53;5062249;28;10800;-69
2023/12/15 05:08:58;;;;;;;;;8.25;7.25;;;;;7.93;96.81;102962.91;5062548;28;10807;-69
2023/12/15 05:11:26;;;;;;;;;6.75;6.75;;;;;7.93;96.62;102970.94;5068796;28;10836;-69
2023/12/15 05:13:52;;;;;;;;;8.50;6.75;;;;;7.92;96.79;102974.63;5066930;28;10700;-68
2023/12/15 05:16:19;;;;;;;;;10.00;10.00;;;;;7.93;97.25;102979.00;5057107;28;10852;-67
2023/12/15 05:18:45;;;;;;;;;14.00;13.00;;;;;7.91;96.54;102986.31;5065899;28;11318;-69
2023/12/15 05:21:12;;;;;;;;;9.75;9.00;;;;;7.92;96.79;102985.34;5076944;28;10725;-69
2023/12/15 05:23:39;;;;;;;;;11.00;8.25;;;;;7.91;96.77;102988.16;5066918;28;11227;-69
2023/12/15 05:26:06;;;;;;;;;8.50;8.00;;;;;7.95;97.27;102986.94;5059133;28;10694;-68
2023/12/15 05:28:32;;;;;;;;;13.25;9.75;;;;;7.95;96.88;102994.13;5067805;28;11241;-68
2023/12/15 05:30:59;;;;;;;;;11.25;10.00;;;;;7.95;96.62;102975.38;5068522;28;10633;-69
2023/12/15 05:33:25;;;;;;;;;10.25;8.00;;;;;7.96;96.86;102977.06;5055558;28;10607;-67
2023/12/15 05:35:52;;;;;;;;;7.00;7.00;;;;;7.95;97.21;102967.31;5049755;28;10627;-68
2023/12/15 05:38:18;;;;;;;;;10.25;9.75;;;;;7.96;97.07;102974.38;5063182;28;10747;-69
2023/12/15 05:40:45;;;;;;;;;9.75;9.00;;;;;7.97;96.74;102976.06;5064860;28;10562;-69
2023/12/15 05:43:11;;;;;;;;;6.00;6.00;;;;;7.97;97.17;102970.72;5067768;28;10599;-69
2023/12/15 05:45:38;;;;;;;;;6.50;6.00;;;;;7.97;96.56;102976.06;5062391;28;10622;-69
2023/12/15 05:48:05;;;;;;;;;8.75;6.75;;;;;7.96;96.89;102975.22;5063298;28;10611;-69
2023/12/15 05:50:32;;;;;;;;;7.50;6.25;;;;;7.98;96.81;102988.50;5060719;28;10619;-69
2023/12/15 05:53:02;;;;;;;;;8.25;8.25;;;;;7.97;97.07;102998.38;5067476;28;10473;-67
2023/12/15 05:55:29;;;;;;;;;6.00;6.00;;;;;7.98;97.04;103005.47;5068849;28;10485;-71
2023/12/15 05:57:55;;;;;;;;;10.00;7.00;;;;;7.97;96.84;103014.47;5063893;28;10519;-71
2023/12/15 06:00:21;;;;;;;;;7.25;6.00;;;;;7.98;97.07;103012.63;5064707;28;10648;-69
2023/12/15 06:02:48;;;;;;;;;6.75;6.75;;;;;7.96;97.27;103009.25;5066071;28;10612;-70
2023/12/15 06:05:15;;;;;;;;;3.00;3.00;;;;;7.96;97.08;103009.25;5067704;28;10455;-68
2023/12/15 06:07:41;;;;;;;;;4.50;3.50;;;;;7.98;96.87;103018.00;5065863;28;10612;-71
2023/12/15 06:10:08;;;;;;;;;5.25;5.00;;;;;7.98;96.99;103015.31;5065994;28;10480;-70
2023/12/15 06:12:34;;;;;;;;;7.25;7.00;;;;;7.97;96.68;103021.66;5062542;28;10506;-70
2023/12/15 06:15:01;;;;;;;;;8.00;8.00;;;;;7.98;96.67;103031.41;5066434;28;10483;-71
2023/12/15 06:17:27;;;;;;;;;8.50;6.25;;;;;7.98;97.01;103026.94;5065632;28;10521;-71
2023/12/15 06:19:54;;;;;;;;;9.00;6.25;;;;;7.99;97.01;103033.13;5063897;28;10732;-70
2023/12/15 06:22:21;;;;;;;;;9.00;7.00;;;;;8.01;96.55;103036.53;5062570;28;10610;-70
2023/12/15 06:24:47;;;;;;;;;5.50;5.50;;;;;8.02;96.47;103043.59;5072035;28;10483;-69
2023/12/15 06:27:14;;;;;;;;;10.00;8.25;;;;;8.00;97.04;103040.19;5067261;28;10604;-70
2023/12/15 06:29:41;;;;;;;;;7.25;6.00;;;;;8.01;97.36;103033.84;5068641;28;10791;-70
2023/12/15 06:32:10;;;;;;;;;9.00;9.00;;;;;8.00;97.02;103035.69;5071100;28;10683;-69
2023/12/15 06:34:40;;;;;;;;;10.75;5.75;;;;;8.01;97.12;103047.25;5071304;28;10599;-70
2023/12/15 06:37:06;;;;;;;;;7.00;5.75;;;;;8.00;97.23;103062.50;5068769;28;10724;-67
2023/12/15 06:39:33;;;;;;;;;7.50;6.00;;;;;8.00;97.78;103067.03;5070742;28;10511;-68
2023/12/15 06:42:02;;;;;;;;;7.00;7.00;;;;;8.00;97.13;103057.13;5061880;28;10693;-68
2023/12/15 06:44:30;;;;;;;;;8.00;6.00;;;;;8.04;97.45;103071.16;5061121;28;10502;-67
2023/12/15 06:46:56;;;;;;;;;5.75;5.75;;;;;8.03;97.12;103080.19;5048845;28;11163;-68
2023/12/15 06:49:30;;;;;;;;;6.00;6.00;;;;;8.04;97.21;103092.63;5063199;28;10493;-67
2023/12/15 06:51:58;;;;;;;;;5.00;5.00;;;;;8.02;97.53;103079.34;5060495;28;10457;-67
2023/12/15 06:54:25;;;;;;;;;10.00;6.00;;;;;8.03;97.07;103080.19;5061672;28;10424;-68
2023/12/15 06:56:51;;;;;;;;;6.50;6.50;;;;;8.03;97.70;103069.47;5064173;28;10522;-68
2023/12/15 06:59:18;;;;;;;;;9.50;9.00;;;;;8.04;97.45;103084.56;5061265;28;10521;-69
2023/12/15 07:01:44;;;;;;;;;6.75;6.50;;;;;8.03;97.29;103078.34;5067084;28;10460;-68
2023/12/15 07:04:11;;;;;;;;;6.00;6.00;;;;;8.12;99.44;103071.41;5060389;28;10434;-67
2023/12/15 07:06:37;;;;;;;;;6.25;6.25;;;;;8.24;98.75;103067.72;5069868;28;10547;-68
2023/12/15 07:09:04;;;;;;;;;9.00;8.00;;;;;8.27;98.14;103077.38;5060020;28;10418;-68
2023/12/15 07:11:30;;;;;;;;;9.25;6.50;;;;;8.22;97.14;103077.72;5062629;28;10495;-68
2023/12/15 07:13:57;;;;;;;;;12.50;11.50;;;;;8.19;97.48;103088.72;5066050;28;10355;-68
2023/12/15 07:16:24;;;;;;;;;8.00;6.00;;;;;8.16;97.29;103084.44;5068839;28;11142;-69
2023/12/15 07:18:50;;;;;;;;;7.50;7.50;;;;;8.15;97.59;103090.78;5064849;28;10555;-69
2023/12/15 07:21:17;;;;;;;;;9.00;6.25;;;;;8.14;97.16;103096.25;5068458;28;10736;-69
2023/12/15 07:23:43;;;;;;;;;7.00;5.75;;;;;8.13;97.25;103098.09;5069232;28;10491;-69
2023/12/15 07:26:10;;;;;;;;;9.25;6.75;;;;;8.15;97.58;103108.72;5070370;28;10457;-68
2023/12/15 07:28:37;;;;;;;;;6.75;6.75;;;;;8.14;97.01;103112.34;5067129;28;10456;-69
2023/12/15 07:31:03;;;;;;;;;6.00;3.00;;;;;8.12;97.36;103114.31;5049562;28;10428;-67
2023/12/15 07:33:30;;;;;;;;;5.25;3.00;;;;;8.13;97.37;103113.34;5063268;28;10334;-68
2023/12/15 07:35:56;;;;;;;;;6.50;4.50;;;;;8.13;97.59;103122.22;5050024;28;10463;-68
2023/12/15 07:38:23;;;;;;;;;7.00;5.00;;;;;8.15;97.35;103133.72;5049891;28;11264;-69
2023/12/15 07:40:54;;;;;;;;;7.00;7.00;;;;;8.18;97.37;103136.16;5062461;28;10576;-68
2023/12/15 07:43:21;;;;;;;;;7.25;6.25;;;;;8.18;97.30;103141.53;5069697;28;10427;-68
2023/12/15 07:45:47;;;;;;;;;4.50;4.50;;;;;8.20;96.80;103144.06;5063634;28;11172;-69
2023/12/15 07:48:14;;;;;;;;;5.00;5.00;;;;;8.19;97.33;103142.38;5069363;28;11259;-68
2023/12/15 07:50:40;;;;;;;;;8.50;7.00;;;;;8.18;97.14;103137.97;5055810;28;10342;-68
2023/12/15 07:53:07;;;;;;;;;8.00;5.25;;;;;8.19;96.58;103150.44;5048059;28;10441;-68
2023/12/15 07:55:33;;;;;;;;;5.50;5.00;;;;;8.20;96.67;103153.97;5049649;28;10651;-67
2023/12/15 07:58:00;;;;;;;;;10.75;6.75;;;;;8.22;96.80;103157.34;5067034;28;10329;-69
2023/12/15 08:00:26;;;;;;;;;10.25;6.25;;;;;8.22;97.19;103158.22;5069037;28;10506;-68
2023/12/15 08:02:52;;;;;;;;;3.00;3.00;;;;;8.20;96.83;103162.84;5068928;28;10454;-68
2023/12/15 08:05:20;;;;;;;;;3.50;3.00;;;;;8.21;96.69;103167.25;5050829;28;10387;-68
2023/12/15 08:07:46;;;;;;;;;9.50;6.25;;;;;8.22;96.76;103174.31;5069006;28;10373;-69
2023/12/15 08:10:13;;;;;;;;;5.50;5.00;;;;;8.25;97.10;103181.25;5067778;28;10587;-68
2023/12/15 08:12:39;;;;;;;;;6.00;3.00;;;;;8.25;96.90;103194.69;5063764;28;10321;-68
2023/12/15 08:15:06;;;;;;;;;3.00;3.00;;;;;8.28;96.89;103200.66;5047944;28;10512;-69
2023/12/15 08:17:33;;;;;;;;;3.00;3.00;;;;;8.27;96.67;103204.34;5047751;28;10308;-67
2023/12/15 08:20:02;;;;;;;;;6.00;4.00;;;;;8.26;96.75;103207.97;5049070;28;10314;-69
2023/12/15 08:22:28;;;;;;;;;5.75;4.50;;;;;8.26;96.40;103210.66;5049222;28;10290;-68
2023/12/15 08:24:55;;;;;;;;;2.25;2.25;;;;;8.28;96.72;103223.97;5049326;28;10932;-68
2023/12/15 08:27:21;;;;;;;;;7.00;4.00;;;;;8.29;96.63;103217.63;5048771;28;10118;-68
2023/12/15 08:29:48;;;;;;;;;4.50;4.50;;;;;8.31;96.34;103221.03;5047157;28;11112;-67
2023/12/15 08:32:14;;;;;;;;;5.75;3.50;;;;;8.30;96.39;103220.16;5048773;28;10449;-68
2023/12/15 08:34:42;;;;;;;;;3.50;3.50;;;;;8.33;96.43;103217.25;5048797;28;10297;-69
2023/12/15 08:37:09;;;;;;;;;7.75;5.75;;;;;8.33;96.79;103214.56;5048731;28;10352;-68
2023/12/15 08:39:35;;;;;;;;;3.00;3.00;;;;;8.34;96.69;103216.25;5048428;28;10350;-68
2023/12/15 08:42:02;;;;;;;;;5.00;5.00;;;;;8.36;96.37;103219.69;5047411;28;10380;-68
2023/12/15 08:44:29;;;;;;;;;9.25;7.50;;;;;8.38;96.67;103217.75;5053498;28;10362;-69
2023/12/15 08:47:00;;;;;;;;;9.00;6.75;;;;;8.41;96.78;103236.31;5068527;28;11028;-68
2023/12/15 08:49:27;;;;;;;;;5.50;3.00;;;;;8.44;96.41;103240.59;5068404;28;10357;-68
2023/12/15 08:51:54;;;;;;;;;2.25;2.25;;;;;8.45;95.88;103246.81;5068293;28;10282;-69
2023/12/15 08:54:21;;;;;;;;;7.75;4.75;;;;;8.47;96.27;103252.91;5066721;28;10290;-68
2023/12/15 08:56:47;;;;;;;;;4.00;3.00;;;;;8.48;96.18;103254.63;5068547;28;10273;-68
2023/12/15 08:59:14;;;;;;;;;3.00;3.00;;;;;8.49;96.40;103254.50;5068137;28;10200;-68
2023/12/15 09:01:40;;;;;;;;;1.75;1.75;;;;;8.52;95.74;103264.16;5066863;28;10254;-69
2023/12/15 09:04:07;;;;;;;;;4.00;4.00;;;;;8.52;95.68;103267.69;5050336;28;10124;-68
2023/12/15 09:06:33;;;;;;;;;3.00;3.00;;;;;8.52;95.67;103270.38;5068343;28;10306;-68
2023/12/15 09:09:10;;;;;;;;;6.50;5.00;;;;;8.53;95.68;103276.59;5068019;28;10245;-68
2023/12/15 09:11:37;;;;;;;;;6.00;4.00;;;;;8.54;95.85;103278.28;5068199;28;10360;-69
2023/12/15 09:14:04;;;;;;;;;6.50;5.00;;;;;8.56;96.16;103279.03;5068239;28;10241;-68
2023/12/15 09:16:30;;;;;;;;;4.75;4.75;;;;;8.56;95.79;103287.09;5059326;28;10385;-68
2023/12/15 09:18:57;;;;;;;;;3.50;2.50;;;;;8.60;95.94;103304.66;5048104;28;11158;-68
2023/12/15 09:21:24;;;;;;;;;2.75;2.25;;;;;8.62;95.82;103308.94;5052010;28;10434;-68
2023/12/15 09:23:50;;;;;;;;;4.75;3.00;;;;;8.65;95.86;103311.38;5068047;28;10172;-68
2023/12/15 09:26:16;;;;;;;;;5.25;5.25;;;;;8.68;95.52;103315.66;5068008;28;10311;-69
2023/12/15 09:28:43;;;;;;;;;3.00;3.00;;;;;8.66;95.17;103314.91;5067767;28;11087;-68
2023/12/15 09:31:11;;;;;;;;;8.00;3.00;;;;;8.67;95.50;103319.34;5068275;28;10344;-69
2023/12/15 09:33:38;;;;;;;;;3.00;3.00;;;;;8.69;95.62;103324.56;5067707;28;10516;-70
2023/12/15 09:36:06;;;;;;;;;6.50;5.75;;;;;8.68;95.57;103326.41;5067254;28;10268;-69
2023/12/15 09:38:32;;;;;;;;;2.00;2.00;;;;;8.70;95.49;103329.81;5066290;28;10401;-68
2023/12/15 09:40:59;;;;;;;;;9.00;5.75;;;;;8.72;94.97;103338.59;5066617;28;10247;-68
2023/12/15 09:43:26;;;;;;;;;5.25;4.00;;;;;8.75;95.38;103350.91;5067736;28;11015;-68
2023/12/15 09:45:57;;;;;;;;;4.00;4.00;;;;;8.78;95.32;103348.84;5068022;28;10992;-69
2023/12/15 09:48:25;;;;;;;;;2.25;2.25;;;;;8.79;94.85;103344.34;5067539;28;10190;-68
2023/12/15 09:50:55;;;;;;;;;2.50;2.00;;;;;8.80;94.97;103351.44;5067984;28;10407;-68
2023/12/15 09:53:22;;;;;;;;;7.00;6.50;;;;;8.79;94.51;103353.28;5052746;28;10296;-67
2023/12/15 09:55:51;;;;;;;;;8.00;5.75;;;;;8.80;94.80;103365.72;5070135;28;10311;-68
2023/12/15 09:58:17;;;;;;;;;5.50;5.00;;;;;8.83;94.68;103383.41;5069970;28;10387;-68
2023/12/15 10:00:44;;;;;;;;;5.00;5.00;;;;;8.86;94.67;103389.38;5071973;28;10387;-68
2023/12/15 10:03:11;;;;;;;;;2.50;2.50;;;;;8.88;94.40;103394.66;5070403;28;10146;-68
2023/12/15 10:05:38;;;;;;;;;4.00;2.00;;;;;8.88;94.59;103384.78;5071532;28;10403;-69
2023/12/15 10:08:05;;;;;;;;;3.00;3.00;;;;;8.90;94.45;103388.16;5069686;28;10208;-68
2023/12/15 10:10:33;;;;;;;;;2.75;2.75;;;;;8.94;94.31;103393.31;5071686;28;10165;-68
2023/12/15 10:13:00;;;;;;;;;3.75;3.25;;;;;8.90;94.41;103390.84;5071652;28;10135;-69
2023/12/15 10:15:27;;;;;;;;;3.00;3.00;;;;;8.90;94.25;103404.28;5071257;28;10212;-68
2023/12/15 10:17:57;;;;;;;;;5.00;2.25;;;;;8.95;94.39;103403.06;5071279;28;10230;-68
2023/12/15 10:20:25;;;;;;;;;2.25;2.25;;;;;8.94;94.24;103404.91;5071682;28;10146;-67
2023/12/15 10:23:06;;;;;;;;;5.75;3.50;;;;;8.99;93.90;103410.75;5069692;28;10063;-69
2023/12/15 10:25:33;;;;;;;;;7.00;5.25;;;;;8.99;94.00;103402.72;5065275;28;10224;-69
2023/12/15 10:28:03;;;;;;;;;3.25;2.75;;;;;8.98;94.04;103395.63;5050874;28;10319;-69
2023/12/15 10:30:29;;;;;;;;;3.50;3.50;;;;;8.99;94.08;103407.22;5049981;28;10783;-68
2023/12/15 10:32:57;;;;;;;;;1.00;1.00;;;;;9.01;93.70;103421.41;5050109;28;10264;-69
2023/12/15 10:35:25;;;;;;;;;4.75;2.00;;;;;9.03;93.81;103422.97;5051127;28;10082;-66
2023/12/15 10:37:53;;;;;;;;;2.00;2.00;;;;;9.05;94.14;103422.88;5051049;28;10154;-69
2023/12/15 10:40:20;;;;;;;;;3.00;2.00;;;;;9.08;93.68;103430.72;5051157;28;10201;-68
2023/12/15 10:42:50;;;;;;;;;5.00;3.50;;;;;9.11;93.42;103433.13;5061428;28;10151;-68
2023/12/15 10:45:18;;;;;;;;;5.25;3.50;;;;;9.15;93.20;103431.91;5069404;28;10201;-66
2023/12/15 10:47:46;;;;;;;;;5.25;4.50;;;;;9.15;92.87;103438.16;5070843;28;10162;-67
2023/12/15 10:50:14;;;;;;;;;2.00;2.00;;;;;9.17;92.69;103448.78;5071013;28;10159;-66
2023/12/15 10:52:40;;;;;;;;;2.00;2.00;;;;;9.16;92.51;103453.31;5069684;28;10068;-67
2023/12/15 10:55:08;;;;;;;;;5.00;5.00;;;;;9.14;92.47;103457.94;5070565;28;10827;-68
2023/12/15 10:57:35;;;;;;;;;8.75;5.00;;;;;9.15;92.31;103442.66;5069319;28;10146;-68
2023/12/15 11:00:04;;;;;;;;;5.25;3.50;;;;;9.19;92.63;103446.81;5069197;28;10828;-67
2023/12/15 11:02:34;;;;;;;;;3.75;2.50;;;;;9.21;92.88;103431.44;5070949;28;10436;-66
2023/12/15 11:05:02;;;;;;;;;9.25;2.75;;;;;9.25;92.61;103448.19;5070649;28;10178;-68
2023/12/15 11:07:28;;;;;;;;;5.25;4.50;;;;;9.28;92.62;103440.72;5067683;28;10080;-68
2023/12/15 11:09:57;;;;;;;;;3.00;3.00;;;;;9.32;92.14;103419.84;5070218;28;10850;-69
2023/12/15 11:12:30;;;;;;;;;5.25;4.00;;;;;9.25;92.14;103427.53;5070340;28;10124;-68
2023/12/15 11:15:04;;;;;;;;;5.75;2.75;;;;;9.29;91.83;103423.63;5070266;28;9990;-67
2023/12/15 11:17:31;;;;;;;;;3.75;2.75;;;;;9.31;91.92;103424.34;5070288;28;10058;-70
2023/12/15 11:20:06;;;;;;;;;2.00;2.00;;;;;9.33;91.93;103430.47;5070832;28;10376;-71
2023/12/15 11:22:41;;;;;;;;;1.50;1.50;;;;;9.37;91.78;103423.00;5070448;28;10152;-70
2023/12/15 11:25:18;;;;;;;;;3.00;2.00;;;;;9.39;91.67;103429.94;5061146;28;10069;-69